Time;durP1;ratioP1;P1;durP2;ratioP2;P2;SDS_P1;SDS_P2;PMS_P1;PMS_P2;Temp;Humidity;BMP_temperature;BMP_pressure;BME280_temperature;BME280_humidity;BME280_pressure;Samples;Min_cycle;Max_cycle;Signal;HPM_P1;HPM_P2
2023/04/02 00:00:09;;;;;;;27.33;17.30;;;7.00;99.90;;;;;;5045998;28;20229;-78
2023/04/02 00:02:59;;;;;;;27.10;16.50;;;7.00;99.90;;;;;;5042267;28;20235;-78
2023/04/02 00:05:33;;;;;;;25.63;16.70;;;6.90;99.90;;;;;;5041369;28;20623;-79
2023/04/02 00:08:08;;;;;;;23.63;15.30;;;7.00;99.90;;;;;;5040684;28;20203;-79
2023/04/02 00:10:38;;;;;;;25.43;15.87;;;6.90;99.90;;;;;;5041123;28;20202;-78
2023/04/02 00:13:17;;;;;;;24.53;17.37;;;6.90;99.90;;;;;;5041254;28;20292;-78
2023/04/02 00:15:47;;;;;;;26.60;17.17;;;6.90;99.90;;;;;;5042563;28;20239;-78
2023/04/02 00:18:20;;;;;;;24.90;18.53;;;6.80;99.90;;;;;;5025518;28;20277;-79
2023/04/02 00:20:53;;;;;;;25.93;17.90;;;6.90;99.90;;;;;;5043281;28;20224;-77
2023/04/02 00:23:21;;;;;;;27.20;18.00;;;6.90;99.90;;;;;;5046317;28;20208;-79
2023/04/02 00:25:48;;;;;;;26.17;16.70;;;6.80;99.90;;;;;;5040211;28;20801;-79
2023/04/02 00:28:21;;;;;;;26.23;17.93;;;6.90;99.90;;;;;;5043089;28;20227;-79
2023/04/02 00:30:58;;;;;;;26.97;17.10;;;6.90;99.90;;;;;;5045661;28;20201;-77
2023/04/02 00:33:27;;;;;;;29.27;17.50;;;6.80;99.90;;;;;;5045263;28;20312;-78
2023/04/02 00:35:55;;;;;;;25.73;16.07;;;6.80;99.90;;;;;;5042196;28;20197;-78
2023/04/02 00:38:28;;;;;;;25.33;17.17;;;6.80;99.90;;;;;;5042351;28;20213;-78
2023/04/02 00:40:58;;;;;;;24.17;15.17;;;6.70;99.90;;;;;;5025507;28;20262;-78
2023/04/02 00:43:27;;;;;;;21.40;15.87;;;6.70;99.90;;;;;;5039109;28;20234;-79
2023/04/02 00:45:56;;;;;;;21.73;16.20;;;6.70;99.90;;;;;;5044610;28;20284;-78
2023/04/02 00:48:43;;;;;;;24.17;15.63;;;6.70;99.90;;;;;;5038870;28;20222;-78
2023/04/02 00:51:24;;;;;;;24.23;16.10;;;6.70;99.90;;;;;;5022490;28;20208;-78
2023/04/02 00:53:54;;;;;;;24.83;15.70;;;6.80;99.90;;;;;;5045839;28;20569;-78
2023/04/02 00:56:26;;;;;;;26.17;16.67;;;6.90;99.90;;;;;;5043309;28;20209;-78
2023/04/02 00:58:56;;;;;;;24.60;15.50;;;6.80;99.90;;;;;;5022350;28;20209;-78
2023/04/02 01:01:28;;;;;;;25.63;16.20;;;6.80;99.90;;;;;;5024989;28;20243;-78
2023/04/02 01:04:00;;;;;;;24.33;16.23;;;6.80;99.90;;;;;;5038913;28;20226;-78
2023/04/02 01:06:33;;;;;;;21.20;15.27;;;6.70;99.90;;;;;;5042971;28;20298;-76
2023/04/02 01:09:20;;;;;;;20.67;15.30;;;6.80;99.90;;;;;;5042036;28;20287;-78
2023/04/02 01:12:05;;;;;;;22.20;15.83;;;6.70;99.90;;;;;;5039343;28;20309;-77
2023/04/02 01:14:47;;;;;;;21.40;15.03;;;6.70;99.90;;;;;;5040151;28;20298;-77
2023/04/02 01:17:35;;;;;;;22.07;15.37;;;6.60;99.90;;;;;;5041569;28;20318;-78
2023/04/02 01:20:29;;;;;;;20.73;14.40;;;6.60;99.90;;;;;;5042762;28;20208;-78
2023/04/02 01:23:08;;;;;;;18.50;14.23;;;6.60;99.90;;;;;;5027700;28;20596;-78
2023/04/02 01:25:42;;;;;;;21.83;14.27;;;6.60;99.90;;;;;;5043869;28;20749;-77
2023/04/02 01:28:13;;;;;;;20.73;14.50;;;6.50;99.90;;;;;;5022300;28;20246;-77
2023/04/02 01:30:45;;;;;;;22.83;15.37;;;6.70;99.90;;;;;;5042279;28;20293;-78
2023/04/02 01:33:12;;;;;;;26.53;16.07;;;6.50;99.90;;;;;;5041693;28;20305;-77
2023/04/02 01:35:44;;;;;;;21.47;15.10;;;6.50;99.90;;;;;;5045228;28;20234;-77
2023/04/02 01:38:22;;;;;;;19.83;14.87;;;6.50;99.90;;;;;;5032354;28;20211;-76
2023/04/02 01:41:02;;;;;;;22.73;16.20;;;6.50;99.90;;;;;;5037596;28;20611;-77
2023/04/02 01:43:44;;;;;;;24.20;15.53;;;6.40;99.90;;;;;;5032579;28;20262;-79
2023/04/02 01:46:26;;;;;;;22.80;15.70;;;6.40;99.90;;;;;;5022746;28;20271;-78
2023/04/02 01:48:55;;;;;;;24.17;16.17;;;6.30;99.90;;;;;;5040868;28;20306;-77
2023/04/02 01:51:30;;;;;;;20.77;14.37;;;6.30;99.90;;;;;;5038756;28;20264;-79
2023/04/02 01:54:00;;;;;;;23.30;14.83;;;6.30;99.90;;;;;;5040159;28;20245;-77
2023/04/02 01:56:29;;;;;;;28.77;15.40;;;6.40;99.90;;;;;;5043103;28;20201;-77
2023/04/02 01:58:57;;;;;;;21.20;15.30;;;6.40;99.90;;;;;;5031216;28;20203;-78
2023/04/02 02:01:33;;;;;;;22.30;14.53;;;6.40;99.90;;;;;;5032304;28;20285;-76
2023/04/02 02:04:01;;;;;;;20.53;15.60;;;6.40;99.90;;;;;;5023826;28;20314;-77
2023/04/02 02:06:28;;;;;;;23.43;15.40;;;6.40;99.90;;;;;;5044512;28;20204;-78
2023/04/02 02:09:04;;;;;;;24.43;16.33;;;6.40;99.90;;;;;;5040081;28;20231;-77
2023/04/02 02:11:32;;;;;;;29.73;16.50;;;6.40;99.90;;;;;;5038378;28;20207;-79
2023/04/02 02:14:17;;;;;;;22.73;15.40;;;6.40;99.90;;;;;;5042982;28;20600;-78
2023/04/02 02:16:46;;;;;;;22.13;14.30;;;6.50;99.90;;;;;;5045099;28;20292;-78
2023/04/02 02:19:25;;;;;;;23.07;14.50;;;6.40;99.90;;;;;;5048098;28;20289;-78
2023/04/02 02:22:38;;;;;;;23.53;15.50;;;6.40;99.90;;;;;;5019932;28;20255;-76
2023/04/02 02:25:12;;;;;;;21.63;14.03;;;6.30;99.90;;;;;;5030400;28;20291;-79
2023/04/02 02:28:01;;;;;;;21.90;15.30;;;6.30;99.90;;;;;;5040594;28;20261;-77
2023/04/02 02:30:42;;;;;;;22.87;15.10;;;6.20;99.90;;;;;;5027999;28;20238;-78
2023/04/02 02:33:27;;;;;;;22.40;14.70;;;6.20;99.90;;;;;;5041316;28;20760;-77
2023/04/02 02:36:13;;;;;;;24.50;14.17;;;6.20;99.90;;;;;;5042770;28;20197;-78
2023/04/02 02:38:49;;;;;;;27.50;15.23;;;6.10;99.90;;;;;;5020215;28;20212;-77
2023/04/02 02:41:23;;;;;;;23.37;15.03;;;6.10;99.90;;;;;;5041346;28;20199;-77
2023/04/02 02:44:11;;;;;;;23.23;15.20;;;6.20;99.90;;;;;;5047896;28;20656;-78
2023/04/02 02:46:51;;;;;;;19.93;14.30;;;6.20;99.90;;;;;;5041853;28;20781;-78
2023/04/02 02:49:24;;;;;;;20.70;14.07;;;6.10;99.90;;;;;;5045419;28;20264;-77
2023/04/02 02:52:15;;;;;;;21.50;15.00;;;6.00;99.90;;;;;;5044964;28;20280;-79
2023/04/02 02:55:10;;;;;;;23.63;16.13;;;6.10;99.90;;;;;;5040800;28;20235;-79
2023/04/02 02:57:43;;;;;;;23.90;14.47;;;6.00;99.90;;;;;;5016137;28;20207;-78
2023/04/02 03:00:11;;;;;;;20.13;14.10;;;6.00;99.90;;;;;;5043663;28;20243;-77
2023/04/02 03:02:41;;;;;;;19.63;13.10;;;6.00;99.90;;;;;;5045020;28;20350;-77
2023/04/02 03:05:14;;;;;;;19.43;13.33;;;6.00;99.90;;;;;;5048334;28;20195;-78
2023/04/02 03:07:42;;;;;;;18.17;11.87;;;6.10;99.90;;;;;;5047411;28;20273;-78
2023/04/02 03:10:31;;;;;;;18.30;12.23;;;6.00;99.90;;;;;;5046155;28;20199;-78
2023/04/02 03:13:11;;;;;;;19.93;12.43;;;5.90;99.90;;;;;;5042768;28;20619;-78
2023/04/02 03:15:59;;;;;;;22.53;12.33;;;5.90;99.90;;;;;;5045051;28;20212;-77
2023/04/02 03:18:31;;;;;;;21.97;13.13;;;5.80;99.90;;;;;;5043810;28;20233;-78
2023/04/02 03:21:12;;;;;;;18.57;12.37;;;5.70;99.90;;;;;;5044171;28;20305;-77
2023/04/02 03:23:43;;;;;;;17.10;10.93;;;5.60;99.90;;;;;;5047814;28;20494;-77
2023/04/02 03:26:45;;;;;;;16.47;10.80;;;5.60;99.90;;;;;;5041685;28;20236;-78
2023/04/02 03:29:25;;;;;;;16.73;10.67;;;5.50;99.90;;;;;;5041001;28;20294;-79
2023/04/02 03:32:15;;;;;;;20.37;11.43;;;5.50;99.90;;;;;;5022825;28;21013;-79
2023/04/02 03:34:48;;;;;;;15.10;10.23;;;5.50;99.90;;;;;;5044983;28;20289;-77
2023/04/02 03:37:29;;;;;;;17.47;10.33;;;5.50;99.90;;;;;;5046234;28;20197;-78
2023/04/02 03:40:05;;;;;;;15.80;10.30;;;5.50;99.90;;;;;;5040905;28;20254;-77
2023/04/02 03:42:44;;;;;;;13.33;9.63;;;5.50;99.90;;;;;;5040759;28;20286;-78
2023/04/02 03:45:26;;;;;;;14.87;10.10;;;5.50;99.90;;;;;;5040145;28;20253;-79
2023/04/02 03:48:14;;;;;;;14.93;9.53;;;5.40;99.90;;;;;;5043524;28;20249;-78
2023/04/02 03:50:44;;;;;;;13.40;8.93;;;5.40;99.90;;;;;;5045647;28;20209;-78
2023/04/02 03:53:11;;;;;;;11.87;8.90;;;5.40;99.90;;;;;;5041568;28;20205;-78
2023/04/02 03:55:40;;;;;;;14.30;8.07;;;5.30;99.90;;;;;;5043867;28;20198;-79
2023/04/02 03:58:35;;;;;;;12.13;8.57;;;5.30;99.90;;;;;;5031696;28;20203;-79
2023/04/02 04:01:22;;;;;;;14.47;7.87;;;5.30;99.90;;;;;;5031766;28;20223;-78
2023/04/02 04:03:56;;;;;;;14.83;7.63;;;6.20;99.90;;;;;;5039435;28;20724;-78
2023/04/02 04:06:29;;;;;;;10.70;6.90;;;5.20;99.90;;;;;;5040953;28;20256;-78
2023/04/02 04:09:08;;;;;;;11.73;6.83;;;5.20;99.90;;;;;;5043600;28;20205;-78
2023/04/02 04:11:38;;;;;;;8.90;6.07;;;5.20;99.90;;;;;;5044070;28;20207;-78
2023/04/02 04:14:28;;;;;;;10.60;5.83;;;5.10;99.90;;;;;;5043161;28;20291;-78
2023/04/02 04:17:08;;;;;;;11.13;6.00;;;5.10;99.90;;;;;;5042802;28;20218;-78
2023/04/02 04:19:45;;;;;;;9.80;5.80;;;5.00;99.90;;;;;;5026346;28;20287;-79
2023/04/02 04:22:29;;;;;;;9.70;5.93;;;5.10;99.90;;;;;;5046730;28;20260;-77
2023/04/02 04:24:57;;;;;;;14.30;6.13;;;5.00;99.90;;;;;;5041389;28;20610;-77
2023/04/02 04:27:33;;;;;;;8.73;5.80;;;4.40;99.90;;;;;;5041171;28;20211;-78
2023/04/02 04:30:26;;;;;;;10.80;5.73;;;5.20;99.90;;;;;;5044498;28;20279;-80
2023/04/02 04:33:02;;;;;;;9.77;5.73;;;5.10;99.90;;;;;;5044607;28;20316;-76
2023/04/02 04:35:37;;;;;;;10.60;5.90;;;5.20;99.90;;;;;;5042092;28;20687;-77
2023/04/02 04:38:43;;;;;;;11.33;5.53;;;4.90;99.90;;;;;;5022892;28;20213;-78
2023/04/02 04:41:23;;;;;;;12.40;5.30;;;4.90;99.90;;;;;;5001084;28;20289;-78
2023/04/02 04:44:20;;;;;;;10.00;5.70;;;4.50;99.90;;;;;;5009517;28;20217;-78
2023/04/02 04:47:01;;;;;;;9.60;5.53;;;4.80;99.90;;;;;;5039353;28;20419;-79
2023/04/02 04:49:52;;;;;;;9.50;5.20;;;4.80;99.90;;;;;;5042349;28;20257;-78
2023/04/02 04:52:28;;;;;;;8.90;4.67;;;4.40;99.90;;;;;;5038759;28;20218;-78
2023/04/02 04:54:57;;;;;;;8.10;4.63;;;4.50;99.90;;;;;;5032350;28;20209;-78
2023/04/02 04:57:34;;;;;;;11.80;5.43;;;4.70;99.90;;;;;;5043292;28;20236;-80
2023/04/02 05:00:33;;;;;;;7.70;4.40;;;4.80;99.90;;;;;;5038918;28;20206;-79
2023/04/02 05:03:08;;;;;;;7.97;5.10;;;4.70;99.90;;;;;;5007731;28;20607;-79
2023/04/02 05:05:38;;;;;;;8.43;4.50;;;4.70;99.90;;;;;;5045053;28;20198;-80
2023/04/02 05:08:25;;;;;;;11.77;4.30;;;4.60;99.90;;;;;;5040020;28;20229;-77
2023/04/02 05:10:59;;;;;;;8.03;4.17;;;4.70;99.90;;;;;;5043929;28;20212;-79
2023/04/02 05:13:40;;;;;;;6.63;4.37;;;4.70;99.90;;;;;;5041092;28;20368;-78
2023/04/02 05:16:21;;;;;;;7.67;4.23;;;4.60;99.90;;;;;;5042072;28;20662;-78
2023/04/02 05:19:03;;;;;;;7.53;4.00;;;4.50;99.90;;;;;;5027473;28;20219;-78
2023/04/02 05:21:50;;;;;;;8.00;4.50;;;4.50;99.90;;;;;;5022876;28;20238;-79
2023/04/02 05:24:31;;;;;;;6.83;4.07;;;4.40;99.90;;;;;;5018595;28;20206;-79
2023/04/02 05:27:11;;;;;;;8.10;4.20;;;4.60;99.90;;;;;;5017831;28;20198;-78
2023/04/02 05:29:40;;;;;;;10.93;4.37;;;4.50;99.90;;;;;;5028236;28;20205;-78
2023/04/02 05:32:18;;;;;;;6.77;4.27;;;4.40;99.90;;;;;;5024857;28;20208;-79
2023/04/02 05:34:50;;;;;;;9.30;4.37;;;4.40;99.90;;;;;;5036497;28;20304;-78
2023/04/02 05:37:22;;;;;;;4.93;4.13;;;4.40;99.90;;;;;;5023835;28;20245;-78
2023/04/02 05:39:59;;;;;;;11.60;4.63;;;4.50;99.90;;;;;;5025106;28;20297;-79
2023/04/02 05:42:34;;;;;;;11.37;4.97;;;4.40;99.90;;;;;;5022703;28;20303;-78
2023/04/02 05:45:07;;;;;;;10.07;4.97;;;4.50;99.90;;;;;;5021378;28;20289;-78
2023/04/02 05:47:39;;;;;;;10.90;5.07;;;4.40;99.90;;;;;;5022384;28;20293;-79
2023/04/02 05:50:07;;;;;;;6.57;4.20;;;4.10;99.90;;;;;;5023303;28;20727;-78
2023/04/02 05:52:40;;;;;;;7.03;5.00;;;4.20;99.90;;;;;;5022140;28;20208;-77
2023/04/02 05:55:10;;;;;;;8.03;4.60;;;4.20;99.90;;;;;;5024606;28;20194;-78
2023/04/02 05:58:01;;;;;;;5.67;4.50;;;4.10;99.90;;;;;;5020618;28;20201;-79
2023/04/02 06:00:39;;;;;;;7.00;4.50;;;4.20;99.90;;;;;;5021154;28;20513;-79
2023/04/02 06:03:28;;;;;;;8.33;5.07;;;4.90;99.90;;;;;;5023858;28;20300;-79
2023/04/02 06:06:02;;;;;;;6.40;4.60;;;4.40;99.90;;;;;;5027721;28;20195;-77
2023/04/02 06:08:42;;;;;;;11.40;5.47;;;4.00;99.90;;;;;;5021744;28;20261;-78
2023/04/02 06:11:15;;;;;;;7.90;5.53;;;4.00;99.90;;;;;;5020528;28;20285;-78
2023/04/02 06:13:42;;;;;;;7.50;5.50;;;4.00;99.90;;;;;;5024897;28;20264;-79
2023/04/02 06:16:14;;;;;;;10.70;5.90;;;4.00;99.90;;;;;;5029552;28;20201;-79
2023/04/02 06:18:42;;;;;;;7.57;5.20;;;3.90;99.90;;;;;;5043809;28;20228;-77
2023/04/02 06:21:14;;;;;;;7.10;5.47;;;3.90;99.90;;;;;;5049750;28;20206;-78
2023/04/02 06:23:48;;;;;;;8.40;5.90;;;3.90;99.90;;;;;;5049640;28;20254;-80
2023/04/02 06:26:26;;;;;;;8.47;6.20;;;3.70;99.90;;;;;;5051945;28;20208;-80
2023/04/02 06:29:03;;;;;;;10.00;6.00;;;4.00;99.90;;;;;;5047560;28;20241;-79
2023/04/02 06:31:52;;;;;;;10.13;6.57;;;4.10;99.90;;;;;;5047456;28;20205;-81
2023/04/02 06:34:23;;;;;;;8.10;6.50;;;4.10;99.90;;;;;;5025387;28;20702;-79
2023/04/02 06:36:54;;;;;;;9.47;6.40;;;4.10;99.90;;;;;;5050216;28;20289;-79
2023/04/02 06:39:23;;;;;;;8.30;5.83;;;5.50;99.90;;;;;;5044823;28;20299;-79
2023/04/02 06:42:06;;;;;;;12.40;7.70;;;4.20;99.90;;;;;;5044306;28;20749;-79
2023/04/02 06:44:37;;;;;;;7.67;6.17;;;4.20;99.90;;;;;;5039292;28;20321;-79
2023/04/02 06:47:04;;;;;;;9.63;5.80;;;4.20;99.90;;;;;;5041931;28;20272;-78
2023/04/02 06:49:39;;;;;;;10.23;6.10;;;4.20;99.90;;;;;;5047091;28;20232;-78
2023/04/02 06:52:15;;;;;;;8.43;6.13;;;4.00;99.90;;;;;;5047070;28;20217;-78
2023/04/02 06:54:42;;;;;;;8.00;6.33;;;4.40;99.90;;;;;;5049878;28;20247;-79
2023/04/02 06:57:12;;;;;;;7.50;5.80;;;4.20;99.90;;;;;;5041853;28;20266;-78
2023/04/02 06:59:39;;;;;;;9.77;5.70;;;4.40;99.90;;;;;;5031872;28;20324;-79
2023/04/02 07:02:28;;;;;;;10.43;6.30;;;4.40;99.90;;;;;;5032307;28;20207;-79
2023/04/02 07:05:01;;;;;;;9.03;5.93;;;4.40;99.90;;;;;;5047503;28;20198;-79
2023/04/02 07:07:28;;;;;;;9.47;6.43;;;5.00;99.90;;;;;;5041000;28;20241;-77
2023/04/02 07:09:56;;;;;;;6.07;4.87;;;4.40;99.90;;;;;;5046449;28;20204;-78
2023/04/02 07:12:24;;;;;;;7.47;5.00;;;4.50;99.90;;;;;;5040402;28;20241;-78
2023/04/02 07:14:51;;;;;;;6.57;5.20;;;4.70;99.90;;;;;;5043284;28;20236;-79
2023/04/02 07:17:20;;;;;;;9.30;5.70;;;4.40;99.90;;;;;;5039554;28;20297;-80
2023/04/02 07:19:50;;;;;;;10.40;5.53;;;4.40;99.90;;;;;;5041775;28;20215;-79
2023/04/02 07:22:18;;;;;;;8.70;4.80;;;4.40;99.90;;;;;;5040795;28;20229;-81
2023/04/02 07:24:45;;;;;;;8.77;4.73;;;4.70;99.90;;;;;;5039662;28;20217;-79
2023/04/02 07:27:13;;;;;;;8.47;4.53;;;4.30;99.90;;;;;;5042110;28;20209;-79
2023/04/02 07:29:43;;;;;;;7.07;4.53;;;4.20;99.90;;;;;;5044807;28;20680;-80
2023/04/02 07:32:12;;;;;;;6.83;4.53;;;4.20;99.90;;;;;;5041199;28;20206;-78
2023/04/02 07:34:40;;;;;;;7.57;4.03;;;4.30;99.90;;;;;;5044898;28;20217;-80
2023/04/02 07:37:11;;;;;;;6.27;4.10;;;4.30;99.90;;;;;;5040709;28;20205;-78
2023/04/02 07:39:38;;;;;;;6.97;4.10;;;4.20;99.90;;;;;;5041206;28;20213;-79
2023/04/02 07:42:06;;;;;;;7.67;4.87;;;4.30;99.90;;;;;;5044653;28;20237;-79
2023/04/02 07:44:33;;;;;;;7.77;5.10;;;4.20;99.90;;;;;;5044099;28;20760;-78
2023/04/02 07:47:00;;;;;;;8.40;5.03;;;4.30;99.90;;;;;;5044620;28;20194;-79
2023/04/02 07:49:27;;;;;;;6.37;4.37;;;4.30;99.90;;;;;;5047861;28;20324;-82
2023/04/02 07:51:54;;;;;;;7.53;4.40;;;5.70;99.90;;;;;;5031941;28;20301;-78
2023/04/02 07:54:21;;;;;;;6.77;4.63;;;3.60;99.90;;;;;;5042534;28;20198;-78
2023/04/02 07:56:54;;;;;;;9.03;4.60;;;4.30;99.90;;;;;;5044279;28;20209;-78
2023/04/02 07:59:21;;;;;;;5.60;4.13;;;4.40;99.90;;;;;;5039644;28;20557;-80
2023/04/02 08:01:48;;;;;;;10.93;4.67;;;4.00;99.90;;;;;;5041894;28;20712;-79
2023/04/02 08:04:18;;;;;;;7.23;3.87;;;5.30;99.90;;;;;;5041242;28;20239;-79
2023/04/02 08:06:46;;;;;;;4.23;3.67;;;5.00;99.90;;;;;;5046020;28;20198;-78
2023/04/02 08:09:14;;;;;;;4.97;3.27;;;4.30;99.90;;;;;;5042172;28;20209;-78
2023/04/02 08:11:41;;;;;;;6.73;3.40;;;3.60;99.90;;;;;;5041832;28;20233;-82
2023/04/02 08:14:08;;;;;;;7.07;3.17;;;4.30;99.90;;;;;;5041529;28;20204;-79
2023/04/02 08:16:53;;;;;;;7.47;3.43;;;4.40;99.90;;;;;;5043065;28;20647;-78
2023/04/02 08:19:20;;;;;;;6.13;3.53;;;4.70;99.90;;;;;;5043368;28;20221;-79
2023/04/02 08:21:50;;;;;;;7.07;3.43;;;4.50;99.90;;;;;;5025489;28;20609;-79
2023/04/02 08:24:18;;;;;;;6.43;3.27;;;5.60;99.90;;;;;;5040950;28;20569;-80
2023/04/02 08:26:46;;;;;;;7.43;3.20;;;4.70;99.90;;;;;;5042526;28;20210;-79
2023/04/02 08:29:13;;;;;;;8.13;3.30;;;4.80;99.90;;;;;;5039521;28;20643;-78
2023/04/02 08:31:40;;;;;;;7.47;3.00;;;4.90;99.90;;;;;;5046107;28;20296;-77
2023/04/02 08:34:07;;;;;;;11.23;2.97;;;5.00;99.90;;;;;;5030837;28;20249;-79
2023/04/02 08:36:40;;;;;;;5.73;2.73;;;5.20;99.90;;;;;;5034056;28;20206;-78
2023/04/02 08:39:10;;;;;;;9.07;2.80;;;5.30;99.90;;;;;;5040056;28;20220;-78
2023/04/02 08:42:01;;;;;;;7.07;2.77;;;5.40;99.90;;;;;;5040640;28;20225;-78
2023/04/02 08:44:43;;;;;;;4.50;2.47;;;5.50;99.90;;;;;;5041502;28;20239;-79
2023/04/02 08:47:12;;;;;;;5.53;2.73;;;5.50;99.90;;;;;;5042332;28;20229;-79
2023/04/02 08:49:43;;;;;;;5.07;2.70;;;5.60;99.90;;;;;;5041872;28;20612;-78
2023/04/02 08:52:35;;;;;;;4.97;2.60;;;5.60;99.90;;;;;;5039892;28;20206;-78
2023/04/02 08:55:11;;;;;;;7.13;3.00;;;5.70;99.90;;;;;;5033201;28;20268;-79
2023/04/02 08:57:50;;;;;;;7.00;3.07;;;5.80;99.90;;;;;;5039401;28;20572;-78
2023/04/02 09:00:37;;;;;;;8.60;3.20;;;5.90;99.90;;;;;;5040610;28;20649;-79
2023/04/02 09:03:12;;;;;;;4.63;2.50;;;5.90;99.90;;;;;;5040796;28;20298;-77
2023/04/02 09:05:42;;;;;;;5.70;2.50;;;6.00;99.90;;;;;;5040786;28;20296;-79
2023/04/02 09:08:19;;;;;;;3.33;2.30;;;6.10;99.90;;;;;;5041257;28;20205;-78
2023/04/02 09:11:18;;;;;;;3.77;2.20;;;6.20;99.90;;;;;;5041705;28;20255;-78
2023/04/02 09:13:47;;;;;;;4.13;2.07;;;6.20;99.90;;;;;;5043319;28;20263;-78
2023/04/02 09:16:21;;;;;;;9.13;2.27;;;7.10;99.90;;;;;;5022128;28;20293;-78
2023/04/02 09:18:51;;;;;;;5.13;2.33;;;7.20;99.90;;;;;;5038622;28;20757;-78
2023/04/02 09:21:33;;;;;;;6.40;2.20;;;7.80;99.90;;;;;;5042759;28;20204;-77
2023/04/02 09:24:00;;;;;;;8.70;2.63;;;9.00;99.90;;;;;;5039193;28;20287;-78
2023/04/02 09:26:31;;;;;;;5.63;2.20;;;8.60;99.90;;;;;;5039651;28;20215;-77
2023/04/02 09:29:14;;;;;;;7.40;2.27;;;8.90;99.90;;;;;;5041769;28;20611;-78
2023/04/02 09:31:54;;;;;;;4.77;2.30;;;9.00;99.90;;;;;;5041380;28;20569;-77
2023/04/02 09:34:33;;;;;;;5.37;2.10;;;9.90;99.90;;;;;;5039768;28;20264;-78
2023/04/02 09:37:17;;;;;;;4.57;2.40;;;9.30;99.90;;;;;;5038645;28;20296;-77
2023/04/02 09:39:44;;;;;;;5.37;2.70;;;9.20;99.90;;;;;;5042189;28;20288;-77
2023/04/02 09:42:35;;;;;;;6.57;2.70;;;9.40;99.90;;;;;;5038785;28;20238;-77
2023/04/02 09:45:18;;;;;;;8.30;2.30;;;9.30;99.90;;;;;;5039248;28;20229;-77
2023/04/02 09:47:46;;;;;;;5.47;2.77;;;9.80;99.90;;;;;;5041759;28;20275;-77
2023/04/02 09:50:19;;;;;;;5.83;2.47;;;9.10;99.90;;;;;;5039759;28;20212;-77
2023/04/02 09:52:48;;;;;;;4.93;2.37;;;9.50;99.90;;;;;;5021194;28;20289;-78
2023/04/02 09:55:14;;;;;;;8.50;2.43;;;9.30;99.90;;;;;;5030472;28;20237;-77
2023/04/02 09:57:42;;;;;;;4.67;2.53;;;9.20;99.90;;;;;;5038706;28;20325;-76
2023/04/02 10:00:20;;;;;;;4.80;2.37;;;9.30;99.90;;;;;;5039341;28;20597;-76
2023/04/02 10:03:24;;;;;;;3.90;2.03;;;9.70;99.90;;;;;;5045235;28;20303;-78
2023/04/02 10:06:10;;;;;;;2.70;2.13;;;9.80;99.90;;;;;;5044227;28;20276;-76
2023/04/02 10:08:41;;;;;;;4.17;2.00;;;9.60;99.90;;;;;;5041616;28;20624;-78
2023/04/02 10:11:18;;;;;;;6.30;2.00;;;9.70;99.90;;;;;;5037380;28;20599;-77
2023/04/02 10:14:02;;;;;;;6.87;2.00;;;10.40;99.90;;;;;;5042565;28;20259;-77
2023/04/02 10:16:39;;;;;;;6.10;2.47;;;10.10;99.90;;;;;;5041493;28;20201;-77
2023/04/02 10:19:23;;;;;;;4.90;1.90;;;10.10;99.90;;;;;;5016789;28;20238;-77
2023/04/02 10:21:52;;;;;;;3.27;1.80;;;10.20;99.90;;;;;;5039711;28;20301;-77
2023/04/02 10:24:19;;;;;;;3.67;1.93;;;10.20;99.90;;;;;;5021484;28;20230;-79
2023/04/02 10:27:05;;;;;;;5.20;2.13;;;10.20;99.90;;;;;;5021759;28;20229;-77
2023/04/02 10:30:01;;;;;;;4.10;1.90;;;10.00;99.90;;;;;;5020012;28;20236;-77
2023/04/02 10:32:35;;;;;;;7.50;1.97;;;9.90;99.90;;;;;;5026157;28;20222;-78
2023/04/02 10:35:14;;;;;;;4.40;2.10;;;9.90;99.90;;;;;;5023912;28;20206;-78
2023/04/02 10:38:17;;;;;;;6.63;2.20;;;9.80;99.90;;;;;;5018030;28;20617;-78
2023/04/02 10:41:08;;;;;;;5.83;2.60;;;9.80;99.90;;;;;;5022347;28;20237;-78
2023/04/02 10:43:44;;;;;;;3.43;1.87;;;9.80;99.90;;;;;;5020710;28;20242;-79
2023/04/02 10:46:19;;;;;;;4.80;2.13;;;9.80;99.90;;;;;;5017460;28;20679;-77
2023/04/02 10:49:11;;;;;;;4.97;1.90;;;9.80;99.90;;;;;;5020952;28;20309;-79
2023/04/02 10:51:57;;;;;;;5.40;2.50;;;9.80;99.90;;;;;;5028180;28;20213;-77
2023/04/02 10:54:46;;;;;;;3.87;1.90;;;9.70;99.90;;;;;;5020119;28;20202;-80
2023/04/02 10:57:34;;;;;;;5.17;2.00;;;9.50;99.90;;;;;;5021370;28;20194;-77
2023/04/02 11:00:10;;;;;;;5.77;2.27;;;9.50;99.90;;;;;;5019923;28;20240;-77
2023/04/02 11:03:00;;;;;;;7.93;2.70;;;9.50;99.90;;;;;;5023079;28;20219;-77
2023/04/02 11:05:43;;;;;;;4.67;2.00;;;9.60;99.90;;;;;;5025227;28;20289;-77
2023/04/02 11:08:39;;;;;;;6.43;2.50;;;9.60;99.90;;;;;;5011150;28;20256;-77
2023/04/02 11:11:22;;;;;;;4.07;2.40;;;9.60;99.90;;;;;;5017805;28;20244;-77
2023/04/02 11:14:04;;;;;;;5.60;2.33;;;9.60;99.90;;;;;;5024030;28;20196;-77
2023/04/02 11:16:32;;;;;;;4.77;2.40;;;9.50;99.90;;;;;;5023987;28;20225;-78
2023/04/02 11:19:15;;;;;;;3.00;2.10;;;9.70;99.90;;;;;;5040058;28;20290;-77
2023/04/02 11:21:49;;;;;;;5.77;3.03;;;9.70;99.90;;;;;;5046156;28;20205;-77
2023/04/02 11:24:36;;;;;;;3.50;2.20;;;9.60;99.90;;;;;;5024738;28;20236;-76
2023/04/02 11:27:10;;;;;;;5.50;2.40;;;9.80;99.90;;;;;;5031951;28;20673;-78
2023/04/02 11:29:47;;;;;;;6.30;2.40;;;9.90;99.90;;;;;;5043352;28;20189;-77
2023/04/02 11:32:28;;;;;;;6.83;2.33;;;9.80;99.90;;;;;;5044441;28;20202;-78
2023/04/02 11:34:55;;;;;;;4.90;2.13;;;9.90;99.90;;;;;;5040010;28;20255;-75
2023/04/02 11:37:42;;;;;;;5.97;2.23;;;10.00;99.90;;;;;;5042719;28;20201;-77
2023/04/02 11:40:14;;;;;;;4.57;2.13;;;10.30;99.90;;;;;;5044689;28;20616;-77
2023/04/02 11:42:48;;;;;;;5.53;2.10;;;10.40;99.90;;;;;;5027009;28;20338;-76
2023/04/02 11:45:25;;;;;;;4.23;2.20;;;10.40;99.90;;;;;;5025346;28;20253;-77
2023/04/02 11:48:02;;;;;;;4.23;2.03;;;10.40;99.90;;;;;;5048128;28;20684;-77
2023/04/02 11:50:36;;;;;;;2.43;1.90;;;10.30;99.90;;;;;;5023434;28;20210;-79
2023/04/02 11:53:15;;;;;;;5.47;2.10;;;10.50;99.90;;;;;;5044383;28;20212;-78
2023/04/02 11:55:43;;;;;;;3.83;1.87;;;10.50;99.90;;;;;;5042005;28;20239;-77
2023/04/02 11:58:48;;;;;;;5.37;2.23;;;10.60;99.90;;;;;;5031609;28;20206;-78
2023/04/02 12:01:21;;;;;;;7.10;2.43;;;10.70;99.90;;;;;;5017880;28;20276;-78
2023/04/02 12:03:54;;;;;;;4.10;2.10;;;10.80;99.90;;;;;;5039092;28;20764;-78
2023/04/02 12:06:38;;;;;;;7.40;2.20;;;10.90;99.90;;;;;;5042493;28;20204;-78
2023/04/02 12:09:28;;;;;;;3.20;1.90;;;11.00;99.90;;;;;;5023499;28;20202;-78
2023/04/02 12:11:59;;;;;;;3.97;1.93;;;11.00;99.90;;;;;;5038026;28;20690;-77
2023/04/02 12:14:35;;;;;;;3.93;2.03;;;11.10;99.90;;;;;;5043438;28;20260;-78
2023/04/02 12:17:30;;;;;;;2.90;1.70;;;11.20;99.90;;;;;;5025117;28;20225;-77
2023/04/02 12:20:19;;;;;;;4.67;2.20;;;11.30;99.90;;;;;;5042156;28;20193;-77
2023/04/02 12:22:49;;;;;;;5.27;2.47;;;11.40;99.90;;;;;;5043679;28;20232;-78
2023/04/02 12:25:20;;;;;;;5.10;2.80;;;11.50;99.90;;;;;;5041512;28;20312;-77
2023/04/02 12:28:17;;;;;;;6.10;2.00;;;11.50;99.90;;;;;;5041024;28;20205;-77
2023/04/02 12:30:46;;;;;;;6.50;2.40;;;11.60;99.90;;;;;;5040474;28;20541;-77
2023/04/02 12:33:19;;;;;;;5.67;2.23;;;11.50;99.90;;;;;;5042722;28;20775;-79
2023/04/02 12:35:47;;;;;;;5.37;1.90;;;11.40;99.90;;;;;;5048778;28;20675;-77
2023/04/02 12:38:21;;;;;;;4.47;2.10;;;11.40;99.90;;;;;;5044896;28;20194;-76
2023/04/02 12:40:57;;;;;;;2.87;1.80;;;11.50;99.90;;;;;;5046061;28;20540;-77
2023/04/02 12:43:32;;;;;;;2.83;2.00;;;11.50;99.90;;;;;;5044854;28;20229;-78
2023/04/02 12:46:06;;;;;;;4.20;2.00;;;11.70;99.90;;;;;;5043875;28;20248;-76
2023/04/02 12:48:34;;;;;;;4.30;2.30;;;11.70;99.90;;;;;;5044426;28;20233;-79
2023/04/02 12:51:03;;;;;;;2.33;2.00;;;11.70;99.90;;;;;;5045601;28;20254;-80
2023/04/02 12:53:37;;;;;;;3.87;1.73;;;11.50;99.90;;;;;;5038551;28;20205;-77
2023/04/02 12:56:07;;;;;;;3.97;2.77;;;11.60;99.90;;;;;;5045048;28;20197;-76
2023/04/02 12:58:40;;;;;;;4.13;1.90;;;11.70;99.90;;;;;;5038761;28;20202;-76
2023/04/02 13:01:11;;;;;;;3.80;2.20;;;11.60;99.90;;;;;;5039650;28;20202;-77
2023/04/02 13:03:38;;;;;;;4.73;2.10;;;11.60;99.90;;;;;;5039083;28;20217;-77
2023/04/02 13:06:23;;;;;;;5.90;2.30;;;11.50;99.90;;;;;;5047591;28;20229;-76
2023/04/02 13:08:50;;;;;;;4.17;2.17;;;11.60;99.90;;;;;;5041734;28;20219;-78
2023/04/02 13:11:17;;;;;;;5.60;2.37;;;11.80;99.90;;;;;;5031436;28;20272;-79
2023/04/02 13:13:47;;;;;;;3.20;2.07;;;11.80;99.90;;;;;;5032519;28;20197;-77
2023/04/02 13:16:17;;;;;;;6.03;1.87;;;12.00;99.90;;;;;;5042086;28;20249;-76
2023/04/02 13:18:46;;;;;;;3.97;2.03;;;12.20;99.90;;;;;;5039633;28;20265;-76
2023/04/02 13:21:17;;;;;;;4.53;1.70;;;12.70;99.90;;;;;;5041312;28;20221;-76
2023/04/02 13:23:45;;;;;;;5.10;2.00;;;12.30;99.90;;;;;;5024620;28;20210;-77
2023/04/02 13:26:19;;;;;;;5.57;2.03;;;12.30;99.90;;;;;;5025048;28;20205;-76
2023/04/02 13:29:01;;;;;;;3.70;1.70;;;12.50;99.90;;;;;;5041459;28;20216;-76
2023/04/02 13:31:29;;;;;;;3.20;1.87;;;12.50;99.90;;;;;;5041012;28;20288;-77
2023/04/02 13:33:57;;;;;;;6.03;1.70;;;13.10;99.90;;;;;;5021758;28;20575;-77